Bexar, Arkansas
Current Conditions -  °F | °C
As of 5:53 PM on Saturday 25 Oct 2014 (Local Time) from KBPK Reporting Station
Clear Clear  
Wind Chill: 25°   Ceiling: Unl
Heat Index: 26°   Visibility: 8mi
Dew Point: 17°   Wind: 0mph
Humidity: 62%   Direction: NA
Pressure: 30.02"   Gusts: NA
Location:  36.29°N, 92°W
Report Text: KBPK 252253Z AUTO 00000KT 8SM CLR 25/17 A3002 RMK AO2 SLP158 T02500172
Loading
Personal Weather Stations






























Interactive Weather Map
Tropical Storm Tracking
New forecast layout! Learn more

10-Day Weather Forecast

Advertisements
Track Severe Weather on mobile